Time;durP1;ratioP1;P1;durP2;ratioP2;P2;SDS_P1;SDS_P2;PMS_P1;PMS_P2;Temp;Humidity;BMP_temperature;BMP_pressure;BME280_temperature;BME280_humidity;BME280_pressure;Samples;Min_cycle;Max_cycle;Signal;HPM_P1;HPM_P2
2021/05/03 00:01:26;;;;;;;8.83;8.03;;;6.70;99.90;;;;;;5088462;28;20636;-86
2021/05/03 00:03:52;;;;;;;8.07;7.57;;;6.80;99.90;;;;;;5086401;28;21198;-87
2021/05/03 00:06:18;;;;;;;9.30;8.50;;;6.60;99.90;;;;;;5082710;28;20652;-88
2021/05/03 00:08:44;;;;;;;8.53;7.73;;;6.50;99.90;;;;;;5086106;28;20627;-87
2021/05/03 00:11:11;;;;;;;9.03;8.33;;;6.50;99.90;;;;;;5086849;28;20660;-85
2021/05/03 00:13:37;;;;;;;9.33;8.70;;;6.40;99.90;;;;;;5086306;28;21185;-87
2021/05/03 00:16:05;;;;;;;9.10;8.40;;;6.40;99.90;;;;;;5083385;28;20685;-88
2021/05/03 00:18:32;;;;;;;9.03;8.23;;;6.20;99.90;;;;;;5085320;28;20617;-87
2021/05/03 00:21:01;;;;;;;8.67;7.97;;;6.10;99.90;;;;;;5085968;28;20645;-87
2021/05/03 00:23:27;;;;;;;8.30;7.73;;;5.90;99.90;;;;;;5088628;28;20689;-87
2021/05/03 00:25:56;;;;;;;8.57;7.83;;;5.80;99.90;;;;;;5083176;28;20665;-88
2021/05/03 00:28:22;;;;;;;9.70;8.80;;;5.70;99.90;;;;;;5086691;28;20620;-89
2021/05/03 00:30:48;;;;;;;10.00;9.20;;;5.70;99.90;;;;;;5089461;28;21268;-87
2021/05/03 00:33:16;;;;;;;9.93;9.03;;;5.60;99.90;;;;;;5089996;28;20604;-87
2021/05/03 00:35:42;;;;;;;10.07;9.17;;;5.60;99.90;;;;;;5085261;28;20631;-88
2021/05/03 00:38:12;;;;;;;10.50;9.60;;;5.40;99.90;;;;;;5091814;28;20620;-88
2021/05/03 00:40:38;;;;;;;8.20;7.43;;;5.40;99.90;;;;;;5091505;28;21213;-89
2021/05/03 00:43:06;;;;;;;9.77;8.83;;;5.40;99.90;;;;;;5085500;28;20619;-88
2021/05/03 00:45:33;;;;;;;8.93;8.20;;;5.40;99.90;;;;;;5088970;28;20713;-88
2021/05/03 00:47:59;;;;;;;8.97;8.27;;;5.30;99.90;;;;;;5087171;28;20697;-88
2021/05/03 00:50:29;;;;;;;8.23;7.50;;;5.40;99.90;;;;;;5089793;28;20656;-88
2021/05/03 00:52:56;;;;;;;8.20;7.70;;;5.30;99.90;;;;;;5087211;28;20616;-86
2021/05/03 00:55:24;;;;;;;9.70;8.80;;;5.20;99.90;;;;;;5083884;28;20735;-87
2021/05/03 00:57:52;;;;;;;9.23;8.53;;;5.20;99.90;;;;;;5087161;28;20685;-85
2021/05/03 01:00:21;;;;;;;9.03;8.23;;;5.20;99.90;;;;;;5086968;28;20689;-86
2021/05/03 01:02:48;;;;;;;9.80;9.10;;;5.20;99.90;;;;;;5084667;28;21171;-86
2021/05/03 01:05:15;;;;;;;9.20;8.50;;;5.10;99.90;;;;;;5087549;28;20759;-87
2021/05/03 01:07:42;;;;;;;9.60;8.90;;;5.20;99.90;;;;;;5088651;28;20701;-88
2021/05/03 01:10:09;;;;;;;9.70;8.90;;;5.20;99.90;;;;;;5088594;28;20717;-88
2021/05/03 01:12:37;;;;;;;9.10;8.33;;;5.40;99.90;;;;;;5089065;28;21335;-87
2021/05/03 01:15:04;;;;;;;9.47;8.67;;;5.40;99.90;;;;;;5087170;28;20604;-85
2021/05/03 01:17:32;;;;;;;9.50;8.80;;;5.50;99.90;;;;;;5080018;28;20994;-87
2021/05/03 01:20:05;;;;;;;10.33;9.53;;;5.60;99.90;;;;;;5086265;28;20702;-86
2021/05/03 01:22:34;;;;;;;9.83;9.03;;;5.60;99.90;;;;;;5091396;28;20659;-88
2021/05/03 01:25:01;;;;;;;11.60;10.50;;;5.70;99.90;;;;;;5097980;28;20640;-86
2021/05/03 01:27:27;;;;;;;11.00;10.00;;;5.70;99.90;;;;;;5089422;28;20628;-86
2021/05/03 01:29:54;;;;;;;11.20;10.40;;;5.70;99.90;;;;;;5087822;28;20628;-86
2021/05/03 01:32:20;;;;;;;10.23;9.33;;;5.80;99.90;;;;;;5089670;28;20631;-88
2021/05/03 01:34:46;;;;;;;10.50;9.60;;;5.80;99.90;;;;;;5093763;28;20655;-88
2021/05/03 01:37:13;;;;;;;9.90;9.10;;;5.90;99.90;;;;;;5096262;28;20632;-87
2021/05/03 01:39:40;;;;;;;9.57;8.67;;;6.00;99.90;;;;;;5088377;28;20612;-87
2021/05/03 01:42:07;;;;;;;10.33;9.50;;;5.90;99.90;;;;;;5096140;28;20623;-87
2021/05/03 01:44:34;;;;;;;10.47;9.30;;;5.80;99.90;;;;;;5096104;28;20655;-87
2021/05/03 01:47:01;;;;;;;10.00;9.30;;;5.80;99.90;;;;;;5097880;28;20652;-88
2021/05/03 01:49:27;;;;;;;9.97;9.27;;;5.80;99.90;;;;;;5103267;28;20691;-87
2021/05/03 01:51:54;;;;;;;10.57;9.57;;;5.80;99.90;;;;;;5098087;28;20732;-87
2021/05/03 01:54:22;;;;;;;11.03;10.30;;;5.70;99.90;;;;;;5085917;28;20663;-87
2021/05/03 01:56:51;;;;;;;11.17;10.30;;;5.70;99.90;;;;;;5090200;28;21691;-87
2021/05/03 01:59:30;;;;;;;10.70;9.80;;;5.60;99.90;;;;;;5090275;28;21201;-87
2021/05/03 02:01:56;;;;;;;11.97;10.93;;;5.50;99.90;;;;;;5090591;28;20639;-87
2021/05/03 02:04:23;;;;;;;11.93;10.93;;;5.40;99.90;;;;;;5093791;28;20656;-87
2021/05/03 02:06:56;;;;;;;10.50;9.70;;;5.30;99.90;;;;;;5093512;28;20644;-87
2021/05/03 02:09:22;;;;;;;10.97;9.97;;;5.30;99.90;;;;;;5093506;28;20612;-89
2021/05/03 02:11:53;;;;;;;11.40;10.60;;;5.30;99.90;;;;;;5096069;28;20654;-87
2021/05/03 02:14:19;;;;;;;10.83;10.03;;;5.20;99.90;;;;;;5098447;28;20704;-87
2021/05/03 02:16:46;;;;;;;12.23;11.23;;;5.20;99.90;;;;;;5088740;28;20624;-87
2021/05/03 02:19:13;;;;;;;11.17;10.37;;;5.20;99.90;;;;;;5091844;28;20697;-87
2021/05/03 02:21:41;;;;;;;11.90;11.00;;;5.20;99.90;;;;;;5093269;28;21126;-86
2021/05/03 02:24:08;;;;;;;11.43;10.50;;;5.10;99.90;;;;;;5092089;28;20623;-85
2021/05/03 02:26:34;;;;;;;11.93;11.03;;;5.10;99.90;;;;;;5083302;28;20657;-84
2021/05/03 02:29:01;;;;;;;12.93;11.83;;;5.10;99.90;;;;;;5088189;28;20628;-83
2021/05/03 02:31:28;;;;;;;11.93;10.83;;;5.10;99.90;;;;;;5089570;28;20632;-83
2021/05/03 02:33:54;;;;;;;11.53;10.63;;;5.00;99.90;;;;;;5087748;28;20710;-84
2021/05/03 02:36:20;;;;;;;13.43;12.43;;;5.00;99.90;;;;;;5090465;28;20659;-84
2021/05/03 02:38:47;;;;;;;11.73;10.73;;;5.10;99.90;;;;;;5090997;28;20636;-85
2021/05/03 02:41:13;;;;;;;12.07;11.17;;;5.00;99.90;;;;;;5092803;28;20628;-84
2021/05/03 02:43:39;;;;;;;12.10;11.10;;;4.80;99.90;;;;;;5089059;28;20628;-84
2021/05/03 02:46:07;;;;;;;11.77;10.87;;;4.80;99.90;;;;;;5099054;28;21103;-83
2021/05/03 02:48:33;;;;;;;12.50;11.50;;;4.80;99.90;;;;;;5089237;28;20618;-83
2021/05/03 02:51:00;;;;;;;12.07;11.17;;;4.80;99.90;;;;;;5092695;28;20624;-84
2021/05/03 02:53:26;;;;;;;12.40;11.47;;;4.70;99.90;;;;;;5089883;28;20621;-84
2021/05/03 02:55:52;;;;;;;11.73;10.83;;;4.70;99.90;;;;;;5096516;28;20655;-84
2021/05/03 02:58:18;;;;;;;12.17;11.20;;;4.70;99.90;;;;;;5107174;28;20644;-83
2021/05/03 03:00:45;;;;;;;12.03;11.10;;;4.60;99.90;;;;;;5095041;28;20637;-85
2021/05/03 03:03:12;;;;;;;12.40;11.50;;;4.40;99.90;;;;;;5087669;28;20632;-82
2021/05/03 03:05:38;;;;;;;12.10;11.10;;;4.50;99.90;;;;;;5086929;28;20732;-84
2021/05/03 03:08:05;;;;;;;10.83;10.00;;;4.50;99.90;;;;;;5087570;28;21022;-83
2021/05/03 03:10:32;;;;;;;12.83;11.87;;;4.30;99.90;;;;;;5085419;28;20636;-83
2021/05/03 03:13:01;;;;;;;12.73;11.63;;;4.30;99.90;;;;;;5089052;28;21192;-83
2021/05/03 03:15:30;;;;;;;12.80;11.70;;;4.20;99.90;;;;;;5087688;28;21561;-83
2021/05/03 03:17:57;;;;;;;13.27;12.20;;;4.20;99.90;;;;;;5084313;28;20640;-84
2021/05/03 03:20:24;;;;;;;12.83;11.83;;;4.10;99.90;;;;;;5088281;28;21551;-84
2021/05/03 03:22:51;;;;;;;13.00;12.00;;;4.00;99.90;;;;;;5090931;28;21190;-84
2021/05/03 03:25:18;;;;;;;13.07;12.03;;;4.00;99.90;;;;;;5089696;28;20680;-85
2021/05/03 03:27:45;;;;;;;13.53;12.43;;;3.90;99.90;;;;;;5089383;28;20644;-87
2021/05/03 03:30:14;;;;;;;15.00;13.80;;;3.90;99.90;;;;;;5091592;28;20635;-86
2021/05/03 03:32:43;;;;;;;12.30;11.37;;;4.00;99.90;;;;;;5091957;28;20628;-85
2021/05/03 03:35:11;;;;;;;14.07;12.93;;;4.00;99.90;;;;;;5088517;28;21120;-86
2021/05/03 03:37:39;;;;;;;13.80;12.50;;;4.00;99.90;;;;;;5088352;28;20631;-85
2021/05/03 03:40:06;;;;;;;13.83;12.53;;;3.90;99.90;;;;;;5073565;28;20685;-87
2021/05/03 03:42:33;;;;;;;13.57;12.47;;;4.00;99.90;;;;;;5088544;28;20720;-85
2021/05/03 03:44:59;;;;;;;13.40;12.30;;;4.00;99.90;;;;;;5087945;28;21032;-84
2021/05/03 03:47:26;;;;;;;23.73;13.10;;;4.00;99.90;;;;;;5087417;28;21197;-83
2021/05/03 03:49:52;;;;;;;13.77;12.77;;;4.10;99.90;;;;;;5078845;28;20633;-84
2021/05/03 03:52:19;;;;;;;14.43;13.13;;;4.10;99.90;;;;;;5088842;28;20628;-85
2021/05/03 03:54:46;;;;;;;13.43;12.40;;;4.10;99.90;;;;;;5087409;28;20686;-85
2021/05/03 03:57:13;;;;;;;14.40;13.30;;;4.20;99.90;;;;;;5084729;28;20639;-85
2021/05/03 03:59:41;;;;;;;14.73;13.53;;;4.20;99.90;;;;;;5079050;28;21187;-86
2021/05/03 04:02:08;;;;;;;14.57;13.43;;;4.20;99.90;;;;;;5083814;28;20696;-85
2021/05/03 04:04:36;;;;;;;15.03;13.90;;;4.30;99.90;;;;;;5084839;28;20636;-84
2021/05/03 04:07:09;;;;;;;15.20;14.00;;;4.30;99.90;;;;;;5084227;28;20676;-85
2021/05/03 04:09:40;;;;;;;14.60;13.30;;;4.30;99.90;;;;;;5089581;28;21288;-85
2021/05/03 04:23:33;;;;;;;15.70;14.50;;;4.50;99.90;;;;;;5082559;28;20666;-84
2021/05/03 04:25:59;;;;;;;16.00;14.70;;;4.50;99.90;;;;;;5082283;28;20801;-86
2021/05/03 04:28:27;;;;;;;16.30;14.97;;;4.50;99.90;;;;;;5084685;28;20666;-86
2021/05/03 04:30:54;;;;;;;15.90;14.63;;;4.50;99.90;;;;;;5084671;28;20641;-86
2021/05/03 04:33:20;;;;;;;15.63;14.43;;;4.50;99.90;;;;;;5088214;28;20685;-85
2021/05/03 04:35:47;;;;;;;15.77;14.57;;;4.60;99.90;;;;;;5090835;28;20627;-85
2021/05/03 04:38:13;;;;;;;15.67;14.37;;;4.60;99.90;;;;;;5084225;28;20662;-86
2021/05/03 04:40:43;;;;;;;16.00;14.80;;;4.60;99.90;;;;;;5084981;28;20636;-86
2021/05/03 04:43:11;;;;;;;14.87;13.77;;;4.70;99.90;;;;;;5090430;28;20628;-85
2021/05/03 04:45:38;;;;;;;14.57;13.50;;;4.70;99.90;;;;;;5084182;28;20660;-85
2021/05/03 04:48:05;;;;;;;15.60;14.40;;;4.70;99.90;;;;;;5080586;28;20652;-86
2021/05/03 04:50:31;;;;;;;17.20;15.90;;;4.60;99.90;;;;;;5092087;28;20686;-86
2021/05/03 04:52:58;;;;;;;16.60;15.20;;;4.60;99.90;;;;;;5087333;28;20613;-85
2021/05/03 04:55:24;;;;;;;15.67;14.27;;;4.70;99.90;;;;;;5087578;28;20627;-86
2021/05/03 04:57:51;;;;;;;15.57;14.40;;;4.60;99.90;;;;;;5077988;28;20664;-86
2021/05/03 05:00:18;;;;;;;16.27;14.97;;;4.60;99.90;;;;;;5087542;28;20616;-86
2021/05/03 05:02:46;;;;;;;17.20;15.80;;;4.70;99.90;;;;;;5083346;28;20746;-87
2021/05/03 05:05:13;;;;;;;17.40;16.10;;;4.80;99.90;;;;;;5085360;28;20746;-86
2021/05/03 05:07:41;;;;;;;15.57;14.27;;;4.90;99.90;;;;;;5083638;28;20640;-87
2021/05/03 05:10:09;;;;;;;16.60;15.20;;;4.90;99.90;;;;;;5087379;28;20632;-87
2021/05/03 05:12:35;;;;;;;17.10;15.40;;;4.90;99.90;;;;;;5086877;28;20631;-87
2021/05/03 05:15:04;;;;;;;16.80;15.40;;;5.00;99.90;;;;;;5084235;28;22155;-85
2021/05/03 05:17:31;;;;;;;17.07;15.77;;;5.10;99.90;;;;;;5085255;28;20631;-85
2021/05/03 05:19:59;;;;;;;17.10;15.60;;;5.10;99.90;;;;;;5087900;28;20996;-86
2021/05/03 05:22:26;;;;;;;17.17;15.80;;;5.10;99.90;;;;;;5084770;28;20647;-85
2021/05/03 05:24:55;;;;;;;16.90;15.50;;;5.10;99.90;;;;;;5093880;28;20612;-85
2021/05/03 05:27:22;;;;;;;16.57;15.27;;;5.10;99.90;;;;;;5090500;28;20656;-85
2021/05/03 05:29:55;;;;;;;17.33;15.93;;;5.30;99.90;;;;;;5087275;28;20643;-86
2021/05/03 05:32:21;;;;;;;18.00;16.20;;;5.30;99.90;;;;;;5108848;28;20667;-87
2021/05/03 05:34:48;;;;;;;17.83;16.27;;;5.30;99.90;;;;;;5111027;28;20736;-85
2021/05/03 05:37:15;;;;;;;16.70;15.40;;;5.40;99.90;;;;;;5094314;28;20658;-86
2021/05/03 05:39:41;;;;;;;17.37;15.60;;;5.50;99.90;;;;;;5094236;28;20679;-87
2021/05/03 05:42:08;;;;;;;16.43;15.00;;;5.50;99.90;;;;;;5094241;28;20667;-87
2021/05/03 05:44:34;;;;;;;14.97;13.57;;;5.50;99.90;;;;;;5093988;28;20693;-86
2021/05/03 05:47:01;;;;;;;16.13;14.80;;;5.60;99.90;;;;;;5087286;28;20679;-86
2021/05/03 05:49:27;;;;;;;15.87;14.57;;;5.50;99.90;;;;;;5089748;28;20631;-86
2021/05/03 05:51:53;;;;;;;14.60;13.40;;;5.50;99.90;;;;;;5090488;28;20619;-87
2021/05/03 05:54:21;;;;;;;17.13;15.67;;;5.60;99.90;;;;;;5098230;28;21166;-86
2021/05/03 05:56:47;;;;;;;15.40;14.13;;;5.70;99.90;;;;;;5092522;28;21020;-86
2021/05/03 05:59:18;;;;;;;24.93;15.13;;;5.70;99.90;;;;;;5100614;28;20624;-87
2021/05/03 06:01:45;;;;;;;16.27;14.63;;;5.70;99.90;;;;;;5117416;28;20606;-87
2021/05/03 06:04:16;;;;;;;18.37;16.50;;;5.70;99.90;;;;;;5108366;28;20611;-86
2021/05/03 06:06:44;;;;;;;15.40;13.93;;;5.60;99.90;;;;;;5112629;28;20758;-86
2021/05/03 06:09:10;;;;;;;17.33;15.57;;;5.60;99.90;;;;;;5114257;28;20626;-88
2021/05/03 06:11:37;;;;;;;15.20;14.00;;;5.70;99.90;;;;;;5112847;28;20707;-87
2021/05/03 06:14:04;;;;;;;16.27;14.87;;;5.70;99.90;;;;;;5116279;28;20623;-87
2021/05/03 06:16:30;;;;;;;15.40;14.20;;;5.80;99.90;;;;;;5116803;28;20646;-87
2021/05/03 06:18:57;;;;;;;17.77;15.73;;;5.90;99.90;;;;;;5116961;28;20611;-86
2021/05/03 06:21:23;;;;;;;18.10;16.43;;;6.00;99.90;;;;;;5107634;28;20703;-87
2021/05/03 06:23:49;;;;;;;15.40;14.13;;;6.30;99.90;;;;;;5114121;28;20608;-87
2021/05/03 06:26:20;;;;;;;14.67;13.47;;;6.60;99.90;;;;;;5121621;28;20714;-87
2021/05/03 06:28:49;;;;;;;15.70;14.20;;;6.70;99.90;;;;;;5119231;28;20604;-88
2021/05/03 06:31:18;;;;;;;15.80;14.40;;;6.90;99.90;;;;;;5117419;28;20612;-87
2021/05/03 06:33:45;;;;;;;14.40;13.20;;;7.10;99.90;;;;;;5113644;28;20623;-88
2021/05/03 06:36:11;;;;;;;15.23;14.10;;;7.20;99.90;;;;;;5096086;28;20628;-88
2021/05/03 06:38:40;;;;;;;13.87;12.77;;;7.30;99.90;;;;;;5098731;28;20628;-87
2021/05/03 06:41:08;;;;;;;13.53;12.53;;;7.50;99.90;;;;;;5101572;28;20639;-87
2021/05/03 06:43:41;;;;;;;15.00;13.70;;;7.50;99.90;;;;;;5097029;28;20641;-87
2021/05/03 06:46:09;;;;;;;12.93;11.93;;;7.40;99.90;;;;;;5094544;28;20666;-87
2021/05/03 06:48:37;;;;;;;14.90;13.70;;;7.40;99.90;;;;;;5097209;28;20624;-87
2021/05/03 06:51:03;;;;;;;14.70;13.57;;;7.60;99.90;;;;;;5097580;28;20638;-88
2021/05/03 06:53:29;;;;;;;13.33;12.23;;;7.70;99.90;;;;;;5101717;28;20665;-87
2021/05/03 06:55:56;;;;;;;12.93;12.03;;;7.90;99.90;;;;;;5113475;28;20623;-88
2021/05/03 06:58:22;;;;;;;13.03;11.93;;;8.00;99.90;;;;;;5109607;28;20712;-87
2021/05/03 07:00:48;;;;;;;12.97;11.87;;;8.10;99.90;;;;;;5112599;28;20644;-88
2021/05/03 07:03:21;;;;;;;13.03;12.07;;;8.30;99.90;;;;;;5110835;28;20601;-87
2021/05/03 07:05:47;;;;;;;12.63;11.63;;;8.40;99.90;;;;;;5111366;28;20675;-87
2021/05/03 07:08:13;;;;;;;12.87;11.93;;;8.40;99.90;;;;;;5113442;28;20624;-88
2021/05/03 07:10:43;;;;;;;13.13;12.13;;;8.60;99.90;;;;;;5112839;28;20607;-88
2021/05/03 07:13:10;;;;;;;13.37;12.27;;;8.60;99.90;;;;;;5114790;28;20612;-87
2021/05/03 07:15:37;;;;;;;11.13;10.30;;;8.80;99.90;;;;;;5117874;28;20616;-87
2021/05/03 07:18:04;;;;;;;12.33;11.33;;;8.80;99.90;;;;;;5107247;28;20655;-89
2021/05/03 07:20:32;;;;;;;11.47;10.67;;;8.90;99.90;;;;;;5107033;28;20640;-88
2021/05/03 07:22:59;;;;;;;10.80;9.77;;;9.10;99.90;;;;;;5103054;28;20616;-88
2021/05/03 07:25:27;;;;;;;11.20;10.23;;;9.40;99.90;;;;;;5099017;28;20643;-87
2021/05/03 07:27:53;;;;;;;11.80;10.70;;;9.30;99.90;;;;;;5099038;28;20624;-88
2021/05/03 07:30:20;;;;;;;11.27;10.47;;;9.50;99.90;;;;;;5098357;28;20678;-87
2021/05/03 07:32:47;;;;;;;10.20;9.40;;;9.60;99.90;;;;;;5095246;28;20617;-86
2021/05/03 07:35:16;;;;;;;10.83;9.03;;;9.80;99.90;;;;;;5087885;28;20664;-88
2021/05/03 07:37:43;;;;;;;9.53;8.70;;;9.70;99.90;;;;;;5092317;28;20633;-88
2021/05/03 07:40:11;;;;;;;10.00;9.20;;;9.80;99.90;;;;;;5089727;28;20610;-88
2021/05/03 07:42:40;;;;;;;9.93;9.13;;;10.00;99.90;;;;;;5087301;28;20639;-87
2021/05/03 07:45:07;;;;;;;9.67;8.87;;;10.10;99.90;;;;;;5091923;28;20643;-88
2021/05/03 07:47:33;;;;;;;9.73;8.93;;;10.00;99.90;;;;;;5087223;28;20648;-87
2021/05/03 07:50:00;;;;;;;9.40;8.40;;;10.10;99.90;;;;;;5089473;28;20628;-88
2021/05/03 07:52:26;;;;;;;10.03;9.03;;;10.20;99.90;;;;;;5093882;28;20718;-89
2021/05/03 07:54:53;;;;;;;10.13;9.20;;;10.40;99.90;;;;;;5090463;28;20632;-90
2021/05/03 07:57:20;;;;;;;9.30;8.60;;;10.40;99.90;;;;;;5092106;28;20624;-87
2021/05/03 07:59:46;;;;;;;9.93;9.03;;;10.70;99.90;;;;;;5092733;28;20604;-87
2021/05/03 08:02:12;;;;;;;8.70;8.00;;;11.00;99.90;;;;;;5082140;28;20636;-88
2021/05/03 08:04:39;;;;;;;8.70;7.90;;;11.30;99.90;;;;;;5089027;28;20618;-88
2021/05/03 08:07:05;;;;;;;9.00;8.20;;;11.60;99.90;;;;;;5088149;28;20663;-89
2021/05/03 08:09:32;;;;;;;8.90;8.30;;;11.50;99.90;;;;;;5093521;28;20660;-87
2021/05/03 08:11:59;;;;;;;9.03;8.30;;;11.50;99.70;;;;;;5092344;28;20631;-89
2021/05/03 08:14:25;;;;;;;7.93;7.13;;;11.50;99.90;;;;;;5094844;28;20632;-89
2021/05/03 08:16:58;;;;;;;7.80;7.10;;;11.40;99.90;;;;;;5083760;28;20639;-89
2021/05/03 08:19:25;;;;;;;9.40;8.60;;;11.20;99.90;;;;;;5094029;28;20652;-89
2021/05/03 08:21:52;;;;;;;7.80;7.10;;;11.10;99.90;;;;;;5097254;28;20612;-89
2021/05/03 08:24:18;;;;;;;7.40;6.70;;;10.90;99.90;;;;;;5093959;28;20654;-88
2021/05/03 08:26:45;;;;;;;7.77;7.17;;;10.80;99.60;;;;;;5092785;28;20679;-88
2021/05/03 08:29:15;;;;;;;8.23;7.50;;;10.80;99.20;;;;;;5096279;28;21079;-87
2021/05/03 08:31:41;;;;;;;8.07;7.47;;;10.90;99.40;;;;;;5096050;28;20611;-88
2021/05/03 08:34:07;;;;;;;9.20;8.43;;;10.80;99.90;;;;;;5095596;28;20600;-90
2021/05/03 08:36:36;;;;;;;8.67;7.33;;;10.90;98.70;;;;;;5097419;28;21038;-89
2021/05/03 08:39:04;;;;;;;7.37;6.77;;;11.00;98.60;;;;;;5094796;28;22241;-88
2021/05/03 08:41:32;;;;;;;8.17;7.43;;;11.20;98.50;;;;;;5098770;28;20684;-89
2021/05/03 08:43:59;;;;;;;7.90;7.20;;;11.10;98.40;;;;;;5093853;28;20632;-89
2021/05/03 08:46:27;;;;;;;7.37;6.77;;;11.30;99.90;;;;;;5096938;28;20727;-88
2021/05/03 08:49:00;;;;;;;7.73;7.13;;;11.40;98.70;;;;;;5089023;28;20652;-89
2021/05/03 08:51:34;;;;;;;5.90;5.43;;;11.30;97.60;;;;;;5085470;28;20643;-88
2021/05/03 08:54:08;;;;;;;7.07;6.47;;;11.20;97.90;;;;;;5093032;28;21177;-88
2021/05/03 08:56:36;;;;;;;7.73;6.93;;;11.00;96.70;;;;;;5087237;28;21267;-88
2021/05/03 08:59:02;;;;;;;7.40;6.47;;;11.20;97.20;;;;;;5089402;28;20632;-88
2021/05/03 09:01:30;;;;;;;6.20;5.70;;;11.50;97.20;;;;;;5091492;28;20635;-89
2021/05/03 09:03:59;;;;;;;7.70;7.10;;;11.70;96.40;;;;;;5091659;28;20632;-88
2021/05/03 09:06:26;;;;;;;6.73;6.20;;;11.70;96.20;;;;;;5090240;28;20660;-88
2021/05/03 09:09:04;;;;;;;6.80;6.10;;;11.90;96.20;;;;;;5087794;28;20751;-86
2021/05/03 09:11:30;;;;;;;6.80;6.30;;;11.80;95.10;;;;;;5086847;28;20638;-88
2021/05/03 09:14:08;;;;;;;10.40;6.57;;;12.00;95.80;;;;;;5088997;28;20722;-88
2021/05/03 09:16:42;;;;;;;7.67;6.90;;;12.10;94.80;;;;;;5089885;28;20642;-88
2021/05/03 09:19:10;;;;;;;7.73;7.03;;;12.30;95.20;;;;;;5081423;28;20690;-87
2021/05/03 09:21:37;;;;;;;9.30;6.63;;;12.20;94.50;;;;;;5090538;28;20678;-87
2021/05/03 09:24:09;;;;;;;6.23;5.70;;;12.20;96.70;;;;;;5090156;28;20625;-86
2021/05/03 09:26:42;;;;;;;7.37;6.77;;;12.50;94.80;;;;;;5088358;28;20656;-87
2021/05/03 09:29:25;;;;;;;6.63;6.03;;;12.80;93.80;;;;;;5087607;28;20993;-88
2021/05/03 09:32:11;;;;;;;7.30;6.33;;;12.90;92.90;;;;;;5096442;28;20650;-90
2021/05/03 09:34:40;;;;;;;7.37;6.70;;;12.80;93.60;;;;;;5087079;28;20669;-90
2021/05/03 09:37:27;;;;;;;7.10;6.50;;;12.80;92.70;;;;;;5099768;28;20627;-90
2021/05/03 09:39:59;;;;;;;7.23;6.60;;;12.90;91.20;;;;;;5089334;28;20636;-90
2021/05/03 09:42:48;;;;;;;6.60;6.00;;;12.90;90.70;;;;;;5102271;28;20631;-90
2021/05/03 09:45:17;;;;;;;6.50;6.00;;;12.40;93.10;;;;;;5103629;28;20671;-88
2021/05/03 09:47:47;;;;;;;6.27;5.77;;;12.20;92.30;;;;;;5109136;28;21115;-90
2021/05/03 09:50:16;;;;;;;6.10;5.60;;;12.20;92.70;;;;;;5113585;28;20613;-89
2021/05/03 09:53:01;;;;;;;6.40;5.90;;;12.20;92.00;;;;;;5096604;28;21222;-89
2021/05/03 09:55:44;;;;;;;7.80;7.00;;;12.10;93.30;;;;;;5093892;28;20640;-89
2021/05/03 09:58:16;;;;;;;7.10;6.40;;;12.30;92.00;;;;;;5091881;28;20621;-89
2021/05/03 10:00:44;;;;;;;7.40;6.73;;;12.40;93.50;;;;;;5089486;28;20601;-89
2021/05/03 10:03:36;;;;;;;8.53;5.70;;;12.60;91.10;;;;;;5091820;28;20628;-90
2021/05/03 10:06:08;;;;;;;6.57;5.93;;;12.60;92.50;;;;;;5087152;28;20766;-90
2021/05/03 10:08:36;;;;;;;7.87;6.83;;;12.40;93.50;;;;;;5086040;28;20671;-91
2021/05/03 10:11:05;;;;;;;7.20;6.57;;;12.50;91.60;;;;;;5083264;28;20739;-90
2021/05/03 10:13:33;;;;;;;7.13;6.53;;;12.50;92.90;;;;;;5091529;28;20664;-90
2021/05/03 10:16:01;;;;;;;8.23;7.53;;;12.40;96.40;;;;;;5085336;28;20633;-90
2021/05/03 10:18:31;;;;;;;7.73;6.93;;;13.00;92.60;;;;;;5086730;28;20644;-89
2021/05/03 10:20:58;;;;;;;7.83;7.13;;;12.90;93.60;;;;;;5087183;28;20628;-90
2021/05/03 10:23:25;;;;;;;7.93;7.17;;;13.50;96.50;;;;;;5091974;28;20654;-90
2021/05/03 10:25:57;;;;;;;7.70;7.00;;;14.20;93.30;;;;;;5092393;28;20626;-91
2021/05/03 10:28:23;;;;;;;8.37;5.20;;;14.70;91.60;;;;;;5090507;28;20631;-92
2021/05/03 10:30:50;;;;;;;6.43;5.83;;;14.60;89.40;;;;;;5091723;28;20723;-89
2021/05/03 10:33:17;;;;;;;7.50;6.80;;;15.10;86.00;;;;;;5091925;28;21036;-90
2021/05/03 10:35:46;;;;;;;7.20;6.70;;;14.70;82.60;;;;;;5093009;28;21067;-89
2021/05/03 10:38:36;;;;;;;6.30;5.70;;;14.30;87.00;;;;;;5094561;28;21127;-91
2021/05/03 10:41:25;;;;;;;6.03;5.53;;;13.80;84.60;;;;;;5092167;28;20750;-90
2021/05/03 10:43:53;;;;;;;6.40;5.90;;;13.70;90.50;;;;;;5090316;28;21043;-90
2021/05/03 10:49:44;;;;;;;5.23;4.73;;;14.50;89.50;;;;;;5092658;28;20623;-90
2021/05/03 10:52:15;;;;;;;4.93;4.53;;;14.50;79.20;;;;;;5087583;28;21178;-90
2021/05/03 10:54:52;;;;;;;4.90;4.50;;;14.10;78.60;;;;;;5093369;28;20639;-90
2021/05/03 10:57:38;;;;;;;4.90;4.50;;;14.70;74.90;;;;;;5091153;28;20632;-89
2021/05/03 11:00:11;;;;;;;4.93;4.47;;;14.70;74.30;;;;;;5098735;28;20635;-91
2021/05/03 11:02:46;;;;;;;4.47;4.07;;;14.70;72.00;;;;;;5088629;28;20681;-89
2021/05/03 11:05:22;;;;;;;5.23;4.83;;;14.60;79.70;;;;;;5089189;28;20667;-90
2021/05/03 11:08:28;;;;;;;5.70;4.60;;;14.50;74.60;;;;;;5088270;28;21045;-90
2021/05/03 11:11:03;;;;;;;4.97;4.57;;;15.30;74.50;;;;;;5085079;28;20636;-90
2021/05/03 11:14:09;;;;;;;3.93;3.63;;;15.00;71.20;;;;;;5085938;28;20612;-89
2021/05/03 11:16:50;;;;;;;5.70;4.93;;;14.80;70.40;;;;;;5088379;28;20669;-89
2021/05/03 11:22:24;;;;;;;5.30;4.80;;;14.20;71.70;;;;;;5088323;28;21421;-88
2021/05/03 11:24:55;;;;;;;4.70;4.30;;;14.30;73.70;;;;;;5094542;28;20664;-89
2021/05/03 11:27:41;;;;;;;5.00;4.60;;;13.90;75.50;;;;;;5097192;28;21141;-88
2021/05/03 11:30:14;;;;;;;7.20;4.83;;;14.00;79.70;;;;;;5096946;28;20689;-89
2021/05/03 11:32:40;;;;;;;4.50;4.10;;;14.00;83.90;;;;;;5090458;28;20628;-89
2021/05/03 11:35:27;;;;;;;5.03;4.53;;;14.00;81.20;;;;;;5092723;28;20660;-88
2021/05/03 11:38:00;;;;;;;5.57;5.07;;;13.60;77.60;;;;;;5089062;28;20624;-88
2021/05/03 11:40:38;;;;;;;5.03;4.60;;;13.30;78.00;;;;;;5085206;28;20654;-87
2021/05/03 11:46:06;;;;;;;4.40;4.00;;;13.40;81.90;;;;;;5018130;28;21295;-89
2021/05/03 11:48:33;;;;;;;4.60;4.00;;;13.50;80.40;;;;;;5021854;28;20641;-88
2021/05/03 11:51:04;;;;;;;3.90;3.60;;;13.50;82.30;;;;;;5047911;28;20640;-88
2021/05/03 11:53:38;;;;;;;3.43;3.13;;;14.00;76.00;;;;;;5086993;28;20613;-88
2021/05/03 11:56:24;;;;;;;3.53;3.03;;;14.00;71.00;;;;;;5087671;28;20658;-88
2021/05/03 11:58:53;;;;;;;4.40;3.93;;;14.60;70.00;;;;;;5072622;28;20957;-88
2021/05/03 12:01:20;;;;;;;3.90;3.60;;;15.40;67.70;;;;;;5071791;28;21314;-87
2021/05/03 12:03:57;;;;;;;3.73;3.43;;;15.70;67.60;;;;;;5077858;28;20710;-88
2021/05/03 12:06:37;;;;;;;3.70;3.40;;;15.90;65.10;;;;;;5074823;28;21217;-88
2021/05/03 12:09:06;;;;;;;3.43;3.13;;;15.90;65.30;;;;;;5085081;28;20923;-89
2021/05/03 12:11:32;;;;;;;3.60;3.40;;;16.00;63.10;;;;;;5083964;28;20636;-89
2021/05/03 12:14:00;;;;;;;6.53;3.83;;;15.80;62.50;;;;;;5091942;28;20624;-88
2021/05/03 12:16:38;;;;;;;3.37;3.17;;;15.80;62.10;;;;;;5109293;28;20704;-88
2021/05/03 12:19:14;;;;;;;4.10;3.20;;;15.90;63.60;;;;;;5096558;28;20640;-88
2021/05/03 12:21:44;;;;;;;3.43;3.13;;;16.00;64.00;;;;;;5091408;28;20637;-89
2021/05/03 12:24:16;;;;;;;3.73;3.43;;;16.40;62.80;;;;;;5085061;28;20657;-89
2021/05/03 12:26:53;;;;;;;5.53;4.10;;;17.70;60.60;;;;;;5085612;28;20672;-90
2021/05/03 12:29:23;;;;;;;3.80;3.37;;;17.30;58.20;;;;;;5086139;28;20631;-89
2021/05/03 12:31:50;;;;;;;3.70;3.40;;;16.90;56.40;;;;;;5096958;28;20628;-89
2021/05/03 12:34:20;;;;;;;3.80;3.50;;;16.40;58.90;;;;;;5089113;28;20635;-88
2021/05/03 12:37:07;;;;;;;4.20;3.70;;;15.90;57.90;;;;;;5085778;28;20698;-89
2021/05/03 12:39:35;;;;;;;4.53;3.03;;;15.50;60.20;;;;;;5091982;28;20607;-88
2021/05/03 12:42:16;;;;;;;3.50;3.20;;;15.10;61.90;;;;;;5089247;28;20608;-89
2021/05/03 12:44:48;;;;;;;3.30;3.00;;;15.30;61.90;;;;;;5102311;28;20627;-89
2021/05/03 12:47:31;;;;;;;4.93;2.37;;;16.50;59.50;;;;;;5098074;28;20690;-88
2021/05/03 12:50:05;;;;;;;5.03;3.07;;;17.40;58.90;;;;;;5102238;28;20608;-88
2021/05/03 12:52:37;;;;;;;3.10;2.90;;;18.40;57.60;;;;;;5094474;28;20691;-89
2021/05/03 12:55:21;;;;;;;3.47;3.27;;;19.00;57.20;;;;;;5105184;28;20609;-90
2021/05/03 13:01:11;;;;;;;4.60;2.80;;;17.80;53.80;;;;;;5107079;28;20604;-89
2021/05/03 13:03:51;;;;;;;3.07;2.87;;;18.20;52.80;;;;;;5098862;28;20636;-89
2021/05/03 13:06:28;;;;;;;3.53;3.33;;;19.30;51.50;;;;;;5091165;28;20691;-89
2021/05/03 13:09:08;;;;;;;2.90;2.50;;;19.30;50.70;;;;;;5083477;28;20625;-90
2021/05/03 13:11:58;;;;;;;3.40;2.70;;;18.50;53.70;;;;;;5088003;28;20698;-90
2021/05/03 13:29:09;;;;;;;2.80;2.03;;;17.50;48.60;;;;;;5064642;28;20619;-89
2021/05/03 13:31:38;;;;;;;2.87;2.10;;;17.90;49.50;;;;;;5088795;28;20713;-89
2021/05/03 13:34:07;;;;;;;2.70;1.80;;;18.60;48.20;;;;;;5086655;28;20715;-90